Time;durP1;ratioP1;P1;durP2;ratioP2;P2;SDS_P1;SDS_P2;PMS_P1;PMS_P2;Temp;Humidity;BMP_temperature;BMP_pressure;BME280_temperature;BME280_humidity;BME280_pressure;Samples;Min_cycle;Max_cycle;Signal;HPM_P1;HPM_P2
2023/02/11 11:55:19;;;;;;;57.20;27.50;;;;;;;5.22;100.00;101192.86;214335;1291;94268;-84
2023/02/11 12:01:23;;;;;;;60.30;29.60;;;;;;;5.23;100.00;101213.64;209971;1284;5396889;-86
2023/02/11 12:07:26;;;;;;;62.90;29.10;;;;;;;5.26;100.00;101212.38;214198;1284;138780;-85
2023/02/11 12:13:43;;;;;;;68.80;32.20;;;;;;;5.27;100.00;101215.95;214866;1285;94338;-85
2023/02/11 12:20:06;;;;;;;61.40;28.70;;;;;;;5.28;100.00;101222.58;214183;1284;137627;-86
2023/02/11 12:32:35;;;;;;;55.40;24.60;;;;;;;5.26;100.00;101223.03;214377;1289;138541;-87
2023/02/11 12:50:47;;;;;;;65.20;28.90;;;;;;;5.23;100.00;101221.89;213901;1287;138609;-85
2023/02/11 12:56:51;;;;;;;60.10;27.70;;;;;;;5.23;100.00;101222.92;214001;1285;139616;-86
2023/02/11 13:02:53;;;;;;;57.50;26.00;;;;;;;5.23;100.00;101224.55;214483;1285;138205;-86
2023/02/11 13:08:54;;;;;;;47.00;24.40;;;;;;;5.22;100.00;101220.09;213694;1289;138466;-87
2023/02/11 13:15:14;;;;;;;;;;;;;;;;;;;;;
2023/02/11 13:21:26;;;;;;;50.10;23.00;;;;;;;5.26;100.00;101221.50;214023;1289;138221;-86
2023/02/11 13:27:23;;;;;;;;;;;;;;;;;;;;;
2023/02/11 13:33:36;;;;;;;43.60;22.30;;;;;;;5.31;100.00;101213.98;214389;1288;138194;-85
2023/02/11 13:39:38;;;;;;;;;;;;;;;;;;;;;
2023/02/11 13:45:41;;;;;;;45.10;21.50;;;;;;;5.37;100.00;101233.52;213976;1285;138258;-85
2023/02/11 13:51:42;;;;;;;40.20;21.50;;;;;;;5.39;100.00;101231.27;214299;1291;138275;-84
2023/02/11 14:10:05;;;;;;;;;;;;;;;;;;;;;
2023/02/11 14:16:44;;;;;;;38.00;20.20;;;;;;;5.48;100.00;101226.77;214691;1289;138737;-85
2023/02/11 14:28:43;;;;;;;;;;;;;;;;;;;;;
2023/02/11 14:40:58;;;;;;;50.30;24.90;;;;;;;5.53;100.00;101264.12;214357;1288;139336;-84
2023/02/11 14:46:56;;;;;;;;;;;;;;;;;;;;;
2023/02/11 14:53:02;;;;;;;46.30;22.20;;;;;;;5.57;100.00;101282.88;214818;1289;138299;-83
2023/02/11 14:59:14;;;;;;;54.00;26.90;;;;;;;5.61;100.00;101289.73;214076;1286;139463;-84
2023/02/11 15:05:22;;;;;;;47.20;22.80;;;;;;;5.62;100.00;101311.05;214658;1289;138493;-85
2023/02/11 15:11:05;;;;;;;;;;;;;;;;;;;;;
2023/02/11 15:29:09;;;;;;;46.20;22.40;;;;;;;5.72;100.00;101324.75;213967;1290;138878;-84
2023/02/11 15:35:12;;;;;;;47.10;22.70;;;;;;;5.75;100.00;101323.09;214267;1289;138402;-82
2023/02/11 15:41:12;;;;;;;47.80;21.10;;;;;;;5.77;100.00;101329.17;213788;1289;138429;-83
2023/02/11 15:47:14;;;;;;;38.40;21.00;;;;;;;5.77;100.00;101333.17;213862;1289;138826;-84
2023/02/11 15:53:15;;;;;;;42.80;21.90;;;;;;;5.78;100.00;101342.43;214423;1285;138786;-82
2023/02/11 15:59:17;;;;;;;43.40;22.70;;;;;;;5.78;100.00;101360.22;213893;1285;138461;-83
2023/02/11 16:05:17;;;;;;;43.30;21.80;;;;;;;5.80;100.00;101371.64;214702;1285;139129;-82
2023/02/11 16:23:27;;;;;;;36.20;19.80;;;;;;;5.84;100.00;101399.39;214426;1285;138281;-83
2023/02/11 16:29:28;;;;;;;41.20;22.00;;;;;;;5.84;100.00;101415.98;213846;1285;138528;-83
2023/02/11 16:35:29;;;;;;;39.30;21.00;;;;;;;5.84;100.00;101433.89;214501;1291;138601;-83
2023/02/11 16:47:34;;;;;;;38.40;20.70;;;;;;;5.84;100.00;101445.29;213837;1291;141214;-84
2023/02/11 16:53:35;;;;;;;33.50;19.40;;;;;;;5.82;100.00;101454.10;214757;1287;138875;-83
2023/02/11 16:59:36;;;;;;;32.40;17.70;;;;;;;5.81;100.00;101460.59;214107;1290;138485;-84
2023/02/11 17:05:40;;;;;;;25.50;15.50;;;;;;;5.82;100.00;101481.55;215085;1290;139511;-83
2023/02/11 17:11:41;;;;;;;30.50;16.20;;;;;;;5.81;100.00;101490.02;214352;1288;138195;-83
2023/02/11 17:17:44;;;;;;;31.20;17.50;;;;;;;5.84;100.00;101499.59;214170;1289;138717;-83
2023/02/11 17:29:45;;;;;;;32.80;18.40;;;;;;;5.86;100.00;101507.73;213954;1290;138410;-84
2023/02/11 17:41:48;;;;;;;30.70;16.60;;;;;;;5.87;100.00;101530.95;214762;1285;138229;-86
2023/02/11 17:47:42;;;;;;;29.50;16.40;;;;;;;5.86;100.00;101543.87;214334;1288;138900;-86
2023/02/11 17:53:43;;;;;;;31.50;17.30;;;;;;;5.85;100.00;101547.11;214805;1285;138193;-85
2023/02/11 17:59:44;;;;;;;34.40;18.70;;;;;;;5.84;100.00;101552.61;214223;1287;138941;-84
2023/02/11 18:11:47;;;;;;;26.70;16.20;;;;;;;5.82;100.00;101567.16;214583;1291;138707;-84
2023/02/11 18:17:51;;;;;;;30.00;16.10;;;;;;;5.80;100.00;101575.73;213959;1291;138449;-84
2023/02/11 18:29:53;;;;;;;37.30;20.20;;;;;;;5.78;100.00;101590.07;214335;1286;138507;-83
2023/02/11 18:35:54;;;;;;;27.60;16.60;;;;;;;5.78;100.00;101594.40;214850;1291;138340;-82
2023/02/11 18:41:57;;;;;;;32.40;16.40;;;;;;;5.77;100.00;101590.23;214675;1285;138294;-83
2023/02/11 18:47:48;;;;;;;;;;;;;;;;;;;;;
2023/02/11 18:53:51;;;;;;;30.40;16.70;;;;;;;5.75;100.00;101605.57;214614;1285;138211;-83
2023/02/11 18:59:52;;;;;;;30.90;17.30;;;;;;;5.74;100.00;101618.20;214388;1285;138627;-83
2023/02/11 19:18:09;;;;;;;27.30;12.80;;;;;;;5.72;100.00;101648.15;213560;1291;139167;-82
2023/02/11 19:24:10;;;;;;;25.60;13.40;;;;;;;5.71;100.00;101660.88;215026;1291;138228;-82
2023/02/11 19:36:15;;;;;;;24.30;13.30;;;;;;;5.68;100.00;101680.70;214985;1290;138317;-82
2023/02/11 19:42:13;;;;;;;29.20;13.40;;;;;;;5.68;100.00;101684.98;217003;1291;138235;-81
2023/02/11 19:48:15;;;;;;;28.00;14.10;;;;;;;5.69;100.00;101682.83;214169;1289;138640;-82
2023/02/11 19:54:08;;;;;;;;;;;;;;;;;;;;;
2023/02/11 20:00:10;;;;;;;26.80;13.90;;;;;;;5.66;100.00;101705.57;214104;1290;138354;-83
2023/02/11 20:18:13;;;;;;;27.60;13.90;;;;;;;5.58;100.00;101725.28;213884;1291;138143;-84
2023/02/11 20:24:14;;;;;;;39.60;17.20;;;;;;;5.56;100.00;101744.27;214750;1289;138088;-83
2023/02/11 20:36:20;;;;;;;25.10;10.30;;;;;;;5.52;100.00;101762.34;214577;1289;139175;-83
2023/02/11 20:42:13;;;;;;;;;;;;;;;;;;;;;
2023/02/11 20:48:15;;;;;;;31.40;13.00;;;;;;;5.50;100.00;101781.73;214072;1290;138244;-83
2023/02/11 20:54:09;;;;;;;;;;;;;;;;;;;;;
2023/02/11 21:00:11;;;;;;;24.60;11.10;;;;;;;5.50;100.00;101803.35;214160;1289;138271;-84
2023/02/11 21:06:12;;;;;;;25.10;10.30;;;;;;;5.49;100.00;101819.66;214772;1289;138160;-85
2023/02/11 21:18:14;;;;;;;28.60;9.60;;;;;;;5.48;100.00;101839.52;214307;1291;138440;-84
2023/02/11 21:36:19;;;;;;;24.00;9.90;;;;;;;5.42;100.00;101857.29;214549;1289;138492;-84
2023/02/11 21:42:19;;;;;;;30.10;10.30;;;;;;;5.40;100.00;101863.01;214803;1289;137937;-84
2023/02/11 21:48:22;;;;;;;21.20;9.20;;;;;;;5.37;100.00;101877.52;214148;1291;138615;-84
2023/02/11 21:54:24;;;;;;;25.80;10.00;;;;;;;5.33;100.00;101883.04;215206;1291;138220;-84
2023/02/11 22:00:23;;;;;;;23.70;8.20;;;;;;;5.30;100.00;101888.39;214815;1292;139628;-82
2023/02/11 22:06:25;;;;;;;18.40;8.40;;;;;;;5.28;100.00;101896.40;214674;1288;138621;-81
2023/02/11 22:24:27;;;;;;;32.70;9.90;;;;;;;5.18;100.00;101923.43;214656;1291;138732;-83
2023/02/11 22:30:28;;;;;;;24.60;9.80;;;;;;;5.17;100.00;101942.29;213908;1291;138722;-82
2023/02/11 22:36:30;;;;;;;31.40;12.10;;;;;;;5.14;100.00;101946.23;214549;1294;139495;-82
2023/02/11 22:42:31;;;;;;;26.30;11.50;;;;;;;5.16;100.00;101955.58;215329;1287;139853;-82
2023/02/11 22:48:33;;;;;;;26.70;10.30;;;;;;;5.17;100.00;101965.70;214612;1287;139142;-83
2023/02/11 22:54:24;;;;;;;28.90;10.10;;;;;;;5.18;100.00;101970.70;214701;1287;138517;-83
2023/02/11 23:00:26;;;;;;;24.10;10.30;;;;;;;5.19;100.00;101977.99;214324;1286;139088;-83
2023/02/11 23:18:24;;;;;;;25.60;10.60;;;;;;;5.21;100.00;101982.93;214059;1286;138393;-87
2023/02/11 23:24:25;;;;;;;23.10;9.40;;;;;;;5.21;100.00;101992.27;214707;1285;138706;-86
2023/02/11 23:42:29;;;;;;;28.10;10.10;;;;;;;5.21;100.00;102023.98;214584;1290;138281;-86
2023/02/11 23:48:30;;;;;;;31.50;10.20;;;;;;;5.21;100.00;102037.90;214236;1285;139272;-86
2023/02/11 23:54:31;;;;;;;28.70;10.30;;;;;;;5.21;100.00;102042.20;214747;1285;138428;-86
